Time;durP1;ratioP1;P1;durP2;ratioP2;P2;SDS_P1;SDS_P2;PMS_P1;PMS_P2;Temp;Humidity;BMP_temperature;BMP_pressure;BME280_temperature;BME280_humidity;BME280_pressure;Samples;Min_cycle;Max_cycle;Signal;HPM_P1;HPM_P2
2022/04/16 00:00:34;;;;;;;21.63;14.47;;;14.20;62.80;;;;;;4939778;29;20295;-96
2022/04/16 00:03:03;;;;;;;20.93;13.60;;;14.10;62.60;;;;;;4937320;29;20278;-94
2022/04/16 00:05:31;;;;;;;20.13;13.87;;;14.10;62.60;;;;;;4930460;29;20210;-95
2022/04/16 00:08:10;;;;;;;18.47;13.23;;;14.10;62.50;;;;;;4933529;29;20215;-96
2022/04/16 00:10:41;;;;;;;22.23;14.33;;;14.10;62.90;;;;;;4939832;28;20601;-95
2022/04/16 00:13:11;;;;;;;23.80;14.57;;;14.00;62.90;;;;;;4931210;28;20216;-93
2022/04/16 00:15:44;;;;;;;19.07;14.23;;;14.00;62.60;;;;;;4937391;29;21952;-94
2022/04/16 00:18:13;;;;;;;28.70;15.87;;;14.00;63.10;;;;;;4930655;29;20212;-95
2022/04/16 00:20:51;;;;;;;20.33;14.37;;;14.00;62.80;;;;;;4935163;29;20218;-93
2022/04/16 00:23:19;;;;;;;22.80;14.90;;;14.00;63.10;;;;;;4932702;29;20215;-91
2022/04/16 00:25:50;;;;;;;21.73;13.97;;;13.90;62.80;;;;;;4938818;29;20207;-93
2022/04/16 00:28:18;;;;;;;25.50;15.60;;;13.90;63.00;;;;;;4932448;28;20212;-93
2022/04/16 00:30:45;;;;;;;26.60;16.07;;;13.90;62.90;;;;;;4931374;29;20235;-94
2022/04/16 00:33:14;;;;;;;27.47;15.50;;;13.80;62.90;;;;;;4932971;29;20955;-92
2022/04/16 00:35:47;;;;;;;30.77;15.87;;;13.80;63.00;;;;;;4937292;29;20195;-94
2022/04/16 00:38:14;;;;;;;31.00;17.50;;;13.80;63.40;;;;;;4949375;28;20729;-93
2022/04/16 00:40:41;;;;;;;22.70;15.33;;;13.80;63.20;;;;;;4949571;29;20193;-90
2022/04/16 00:43:21;;;;;;;18.83;13.77;;;13.80;63.30;;;;;;4934846;29;20255;-91
2022/04/16 00:45:55;;;;;;;20.97;14.27;;;13.70;63.70;;;;;;4947038;29;20222;-93
2022/04/16 00:48:26;;;;;;;17.90;13.43;;;13.70;63.60;;;;;;4930448;29;20201;-94
2022/04/16 00:50:55;;;;;;;21.90;14.40;;;13.70;63.50;;;;;;4936679;29;20266;-92
2022/04/16 00:53:27;;;;;;;21.27;15.73;;;13.60;63.50;;;;;;4936696;29;20690;-92
2022/04/16 00:55:55;;;;;;;21.97;15.03;;;13.60;63.60;;;;;;4920131;29;20216;-93
2022/04/16 00:58:23;;;;;;;24.87;14.60;;;13.60;63.40;;;;;;4931527;29;20321;-92
2022/04/16 01:00:51;;;;;;;19.63;13.90;;;13.60;63.60;;;;;;4939225;29;20229;-90
2022/04/16 01:03:18;;;;;;;19.17;13.63;;;13.50;63.50;;;;;;4937030;29;20615;-90
2022/04/16 01:05:46;;;;;;;31.63;16.30;;;13.50;63.40;;;;;;4935380;29;20220;-91
2022/04/16 01:08:13;;;;;;;20.93;14.20;;;13.50;63.60;;;;;;4929912;29;20310;-92
2022/04/16 01:10:41;;;;;;;20.40;13.40;;;13.50;63.70;;;;;;4935700;29;20231;-90
2022/04/16 01:13:09;;;;;;;20.93;14.33;;;13.50;63.80;;;;;;4937604;29;20218;-93
2022/04/16 01:15:39;;;;;;;19.03;14.23;;;13.40;63.70;;;;;;4936625;29;20662;-93
2022/04/16 01:18:07;;;;;;;18.30;13.33;;;13.40;63.80;;;;;;4937896;29;20207;-91
2022/04/16 01:20:37;;;;;;;21.30;14.57;;;13.40;63.80;;;;;;4935654;29;20208;-91
2022/04/16 01:23:05;;;;;;;22.17;14.37;;;13.40;64.10;;;;;;4933481;29;20256;-91
2022/04/16 01:25:33;;;;;;;21.57;14.67;;;13.30;64.10;;;;;;4936024;29;20204;-91
2022/04/16 01:28:01;;;;;;;22.20;13.93;;;13.30;64.00;;;;;;4931869;29;20289;-91
2022/04/16 01:30:29;;;;;;;23.60;15.07;;;13.30;64.10;;;;;;4934706;29;20231;-91
2022/04/16 01:32:56;;;;;;;24.00;14.50;;;13.20;64.10;;;;;;4934820;29;20301;-91
2022/04/16 01:35:23;;;;;;;21.47;13.57;;;13.20;64.10;;;;;;4933017;29;20211;-93
2022/04/16 01:37:51;;;;;;;26.90;15.77;;;13.20;64.10;;;;;;4933096;29;20245;-90
2022/04/16 01:40:20;;;;;;;22.53;14.10;;;13.10;64.10;;;;;;4935208;29;20206;-91
2022/04/16 01:42:48;;;;;;;26.63;14.80;;;13.10;64.40;;;;;;4921179;29;20257;-91
2022/04/16 01:45:17;;;;;;;28.67;15.27;;;13.10;64.30;;;;;;4928634;29;20236;-91
2022/04/16 01:47:45;;;;;;;21.97;14.10;;;13.10;64.30;;;;;;4934572;29;20215;-91
2022/04/16 01:50:13;;;;;;;29.13;15.80;;;13.10;64.30;;;;;;4933427;29;20211;-91
2022/04/16 01:52:42;;;;;;;22.50;14.03;;;13.00;64.40;;;;;;4923843;29;20239;-93
2022/04/16 01:55:10;;;;;;;21.90;14.20;;;13.00;64.40;;;;;;4928750;29;20962;-91
2022/04/16 01:57:39;;;;;;;21.57;14.50;;;13.00;64.40;;;;;;4933843;29;20206;-91
2022/04/16 02:00:08;;;;;;;22.80;14.27;;;13.00;64.60;;;;;;4933843;29;20714;-91
2022/04/16 02:02:36;;;;;;;28.13;16.37;;;13.00;64.60;;;;;;4932707;29;20302;-93
2022/04/16 02:05:06;;;;;;;19.17;14.40;;;12.90;64.40;;;;;;4935672;29;20218;-94
2022/04/16 02:07:34;;;;;;;19.73;14.13;;;13.00;64.70;;;;;;4934925;29;20214;-92
2022/04/16 02:10:02;;;;;;;17.53;13.47;;;12.90;64.70;;;;;;4932709;29;20219;-93
2022/04/16 02:12:31;;;;;;;20.87;15.07;;;12.90;64.80;;;;;;4937445;29;20209;-94
2022/04/16 02:15:01;;;;;;;23.40;15.63;;;12.90;64.80;;;;;;4936988;29;20265;-93
2022/04/16 02:17:32;;;;;;;21.00;14.67;;;12.90;64.90;;;;;;4932750;29;20249;-95
2022/04/16 02:20:07;;;;;;;21.57;16.00;;;12.80;64.80;;;;;;4934402;29;20293;-95
2022/04/16 02:22:42;;;;;;;22.50;14.87;;;12.90;65.00;;;;;;4928344;29;20209;-94
2022/04/16 02:25:11;;;;;;;20.90;15.47;;;12.80;64.70;;;;;;4930029;29;20215;-94
2022/04/16 02:27:38;;;;;;;21.43;15.60;;;12.80;64.50;;;;;;4935611;29;20276;-95
2022/04/16 02:30:10;;;;;;;26.43;17.20;;;12.80;64.60;;;;;;4929024;29;20203;-94
2022/04/16 02:32:38;;;;;;;26.27;17.77;;;12.80;64.90;;;;;;4934034;29;20214;-95
2022/04/16 02:35:06;;;;;;;23.57;17.00;;;12.80;64.80;;;;;;4935960;29;20208;-94
2022/04/16 02:37:35;;;;;;;28.37;17.97;;;12.80;64.70;;;;;;4923027;29;20210;-91
2022/04/16 02:40:03;;;;;;;23.20;16.10;;;12.70;64.90;;;;;;4935375;29;20239;-95
2022/04/16 02:42:34;;;;;;;19.93;15.40;;;12.70;64.80;;;;;;4934988;29;20644;-92
2022/04/16 02:47:52;;;;;;;23.80;15.87;;;12.70;65.00;;;;;;4936513;29;20214;-95
2022/04/16 02:50:19;;;;;;;27.67;17.83;;;12.60;64.80;;;;;;4934988;29;20265;-93
2022/04/16 02:52:47;;;;;;;22.37;16.87;;;12.60;64.80;;;;;;4937019;29;20227;-94
2022/04/16 02:55:17;;;;;;;26.13;17.10;;;12.60;64.70;;;;;;4933368;29;20923;-93
2022/04/16 02:57:45;;;;;;;25.23;17.63;;;12.60;64.90;;;;;;4934081;29;20210;-95
2022/04/16 03:00:14;;;;;;;22.77;16.67;;;12.60;65.00;;;;;;4933115;29;20207;-94
2022/04/16 03:02:41;;;;;;;25.23;17.93;;;12.60;65.00;;;;;;4945045;29;20213;-95
2022/04/16 03:05:11;;;;;;;23.33;16.57;;;12.60;65.10;;;;;;4932124;29;20245;-92
2022/04/16 03:07:44;;;;;;;22.73;16.57;;;12.50;65.30;;;;;;4940849;29;20216;-96
2022/04/16 03:10:15;;;;;;;28.23;17.43;;;12.50;65.20;;;;;;4939214;29;20228;-95
2022/04/16 03:12:46;;;;;;;24.97;16.83;;;12.40;65.10;;;;;;4932159;29;20654;-92
2022/04/16 03:17:59;;;;;;;23.17;15.93;;;12.40;65.10;;;;;;4935035;29;20204;-94
2022/04/16 03:20:30;;;;;;;20.20;15.77;;;12.40;65.30;;;;;;4936116;29;20206;-96
2022/04/16 03:22:58;;;;;;;23.17;16.47;;;12.40;65.60;;;;;;4934622;29;20669;-94
2022/04/16 03:25:27;;;;;;;25.43;17.80;;;12.30;65.50;;;;;;4935663;29;20207;-92
2022/04/16 03:27:54;;;;;;;25.23;17.23;;;12.30;65.30;;;;;;4929221;29;20210;-94
2022/04/16 03:30:23;;;;;;;25.53;16.97;;;12.20;65.40;;;;;;4932172;29;20223;-96
2022/04/16 03:32:53;;;;;;;27.07;17.17;;;12.20;65.40;;;;;;4936503;29;20229;-94
2022/04/16 03:35:24;;;;;;;24.17;17.80;;;12.20;65.70;;;;;;4937887;29;20202;-94
2022/04/16 03:37:53;;;;;;;21.07;16.27;;;12.20;65.80;;;;;;4930110;29;20233;-93
2022/04/16 03:40:24;;;;;;;26.87;17.20;;;12.20;65.80;;;;;;4942869;29;20209;-92
2022/04/16 03:42:53;;;;;;;24.63;17.17;;;12.20;65.80;;;;;;4946955;29;20244;-93
2022/04/16 03:45:23;;;;;;;23.33;16.73;;;12.10;65.80;;;;;;4931452;29;20224;-91
2022/04/16 03:47:51;;;;;;;21.63;16.70;;;12.10;65.90;;;;;;4934499;29;20235;-94
2022/04/16 03:50:18;;;;;;;22.13;15.87;;;12.10;65.90;;;;;;4937260;29;20660;-91
2022/04/16 03:52:47;;;;;;;23.30;17.40;;;12.10;66.10;;;;;;4934181;29;20353;-91
2022/04/16 04:00:49;;;;;;;25.00;17.17;;;12.00;66.20;;;;;;4932757;29;20222;-91
2022/04/16 04:03:17;;;;;;;23.37;17.00;;;12.00;66.20;;;;;;4923940;29;20879;-91
2022/04/16 04:05:45;;;;;;;27.37;18.10;;;12.00;66.40;;;;;;4925001;29;20218;-91
2022/04/16 04:08:13;;;;;;;26.73;17.40;;;11.90;66.30;;;;;;4929887;29;20284;-93
2022/04/16 04:10:42;;;;;;;23.13;15.97;;;11.90;66.40;;;;;;4931552;29;20217;-91
2022/04/16 04:13:10;;;;;;;23.23;16.93;;;11.90;66.40;;;;;;4926093;29;20281;-90
2022/04/16 04:15:37;;;;;;;25.17;17.27;;;11.90;66.50;;;;;;4914313;29;20213;-91
2022/04/16 04:18:04;;;;;;;27.97;17.00;;;11.80;66.50;;;;;;4912682;29;20206;-91
2022/04/16 04:20:32;;;;;;;25.03;16.97;;;11.80;66.70;;;;;;4927512;29;20211;-89
2022/04/16 04:22:59;;;;;;;24.67;17.63;;;11.80;66.80;;;;;;4929993;29;20542;-92
2022/04/16 04:25:26;;;;;;;26.87;17.87;;;11.80;67.00;;;;;;4933347;29;20200;-91
2022/04/16 04:27:55;;;;;;;27.70;17.83;;;11.80;67.10;;;;;;4930938;29;20680;-91
2022/04/16 04:30:22;;;;;;;22.57;16.50;;;11.70;67.30;;;;;;4933010;29;20235;-90
2022/04/16 04:32:49;;;;;;;24.07;16.00;;;11.70;67.10;;;;;;4929513;29;20263;-94
2022/04/16 04:35:16;;;;;;;25.83;17.17;;;11.70;67.20;;;;;;4932293;29;20220;-91
2022/04/16 04:37:43;;;;;;;23.33;16.03;;;11.60;67.20;;;;;;4931807;29;20212;-93
2022/04/16 04:40:11;;;;;;;23.77;15.93;;;11.60;67.40;;;;;;4934901;29;20703;-93
2022/04/16 04:42:38;;;;;;;22.20;15.70;;;11.60;67.50;;;;;;4934017;29;20236;-96
2022/04/16 04:45:12;;;;;;;26.03;17.90;;;11.60;67.70;;;;;;4935567;29;20213;-94
2022/04/16 04:47:40;;;;;;;23.00;16.77;;;11.60;68.00;;;;;;4933281;29;20216;-94
2022/04/16 04:50:08;;;;;;;24.37;16.33;;;11.50;67.80;;;;;;4934480;29;20214;-94
2022/04/16 04:52:42;;;;;;;24.47;16.20;;;11.60;67.90;;;;;;4930019;29;20272;-94
2022/04/16 04:55:13;;;;;;;29.20;17.70;;;11.60;68.40;;;;;;4923410;29;20236;-93
2022/04/16 04:57:40;;;;;;;23.73;15.07;;;11.50;68.40;;;;;;4928894;29;20315;-94
2022/04/16 05:00:11;;;;;;;35.20;18.87;;;11.50;68.20;;;;;;4932803;29;20218;-93
2022/04/16 05:02:44;;;;;;;24.83;16.87;;;11.50;68.50;;;;;;4932177;29;20292;-90
2022/04/16 05:05:11;;;;;;;21.67;16.00;;;11.50;68.80;;;;;;4934461;29;20212;-93
2022/04/16 05:07:40;;;;;;;29.47;16.87;;;11.50;68.30;;;;;;4934816;29;20618;-93
2022/04/16 05:10:09;;;;;;;23.97;16.47;;;11.50;68.40;;;;;;4933692;29;20209;-94
2022/04/16 05:12:38;;;;;;;24.00;15.87;;;11.50;68.50;;;;;;4934218;29;20253;-93
2022/04/16 05:15:06;;;;;;;31.90;17.30;;;11.50;68.80;;;;;;4917475;29;20223;-92
2022/04/16 05:17:37;;;;;;;26.43;17.07;;;11.40;69.30;;;;;;4927566;29;20232;-92
2022/04/16 05:20:07;;;;;;;34.17;18.87;;;11.50;69.00;;;;;;4925864;29;20212;-95
2022/04/16 05:22:34;;;;;;;37.77;19.53;;;11.50;69.00;;;;;;4937976;28;20670;-91
2022/04/16 05:25:01;;;;;;;25.40;16.03;;;11.50;69.10;;;;;;4921404;29;21159;-93
2022/04/16 05:27:30;;;;;;;25.37;16.10;;;11.40;69.10;;;;;;4931041;29;20299;-94
2022/04/16 05:30:06;;;;;;;29.83;17.63;;;11.50;69.30;;;;;;4937482;29;20212;-93
2022/04/16 05:32:41;;;;;;;24.03;16.10;;;11.50;69.50;;;;;;4933943;29;20319;-93
2022/04/16 05:35:12;;;;;;;23.27;16.00;;;11.40;69.90;;;;;;4940380;29;20220;-96
2022/04/16 05:37:39;;;;;;;21.83;15.13;;;11.50;69.80;;;;;;4935611;29;20315;-94
2022/04/16 05:40:07;;;;;;;24.50;16.87;;;11.50;69.80;;;;;;4936468;29;20193;-95
2022/04/16 05:42:40;;;;;;;22.10;15.73;;;11.50;70.00;;;;;;4936881;29;20522;-93
2022/04/16 05:45:08;;;;;;;24.77;16.63;;;11.50;70.60;;;;;;4935380;29;20196;-91
2022/04/16 05:47:37;;;;;;;23.33;17.10;;;11.50;70.40;;;;;;4937991;29;20234;-92
2022/04/16 05:50:08;;;;;;;22.73;15.57;;;11.50;70.40;;;;;;4927849;29;20220;-91
2022/04/16 05:52:35;;;;;;;22.23;15.83;;;11.50;70.70;;;;;;4937700;29;20259;-93
2022/04/16 05:55:03;;;;;;;23.57;15.93;;;11.50;70.60;;;;;;4922591;29;20303;-94
2022/04/16 05:57:33;;;;;;;21.80;15.10;;;11.50;70.70;;;;;;4933924;29;20259;-93
2022/04/16 06:00:00;;;;;;;21.67;16.23;;;11.50;71.00;;;;;;4937430;29;20230;-92
2022/04/16 06:02:29;;;;;;;22.50;15.63;;;11.50;71.10;;;;;;4936129;29;20247;-94
2022/04/16 06:04:57;;;;;;;18.97;14.70;;;11.50;71.20;;;;;;4937882;29;20204;-93
2022/04/16 06:07:24;;;;;;;23.87;15.87;;;11.50;71.50;;;;;;4936106;29;20213;-93
2022/04/16 06:09:51;;;;;;;22.20;15.63;;;11.50;71.30;;;;;;4934731;29;20272;-94
2022/04/16 06:12:18;;;;;;;27.10;16.83;;;11.50;71.50;;;;;;4934767;29;20327;-92
2022/04/16 06:14:50;;;;;;;21.87;15.60;;;11.50;71.50;;;;;;4934253;29;20280;-91
2022/04/16 06:17:17;;;;;;;35.73;19.43;;;11.50;71.80;;;;;;4932850;29;20299;-91
2022/04/16 06:19:47;;;;;;;26.37;16.40;;;11.60;71.80;;;;;;4931377;29;20303;-92
2022/04/16 06:22:16;;;;;;;30.23;17.10;;;11.60;72.30;;;;;;4934942;29;20200;-91
2022/04/16 06:24:44;;;;;;;27.43;17.07;;;11.60;72.40;;;;;;4932961;29;20273;-91
2022/04/16 06:27:11;;;;;;;28.37;16.30;;;11.60;72.20;;;;;;4933559;29;20287;-91
2022/04/16 06:29:39;;;;;;;25.10;16.03;;;11.70;72.30;;;;;;4931902;29;20257;-92
2022/04/16 06:32:08;;;;;;;24.97;15.97;;;11.70;72.70;;;;;;4933389;29;20232;-92
2022/04/16 06:34:36;;;;;;;23.57;15.67;;;11.60;72.80;;;;;;4935753;29;20213;-91
2022/04/16 06:37:05;;;;;;;32.33;18.07;;;11.70;72.90;;;;;;4935799;29;20216;-91
2022/04/16 06:39:34;;;;;;;31.03;17.87;;;11.80;73.00;;;;;;4934222;29;20221;-90
2022/04/16 06:42:01;;;;;;;25.27;16.70;;;11.80;73.40;;;;;;4937778;29;20247;-88
2022/04/16 06:44:31;;;;;;;24.47;17.43;;;11.80;73.20;;;;;;4938359;29;20645;-92
2022/04/16 06:46:59;;;;;;;23.27;15.60;;;11.80;73.50;;;;;;4936912;29;20207;-93
2022/04/16 06:49:29;;;;;;;24.97;15.83;;;11.80;73.50;;;;;;4920680;29;20684;-93
2022/04/16 06:51:56;;;;;;;24.83;16.47;;;11.90;73.70;;;;;;4935062;29;20740;-90
2022/04/16 06:54:23;;;;;;;24.60;16.63;;;11.90;73.50;;;;;;4935299;29;20242;-93
2022/04/16 06:56:53;;;;;;;28.60;18.13;;;12.00;73.60;;;;;;4932523;29;20281;-91
2022/04/16 06:59:20;;;;;;;29.27;17.47;;;12.00;74.10;;;;;;4930682;29;20753;-92
2022/04/16 07:01:47;;;;;;;24.83;16.80;;;12.10;74.70;;;;;;4934612;29;20669;-91
2022/04/16 07:04:14;;;;;;;23.63;17.00;;;12.10;73.90;;;;;;4932154;29;20309;-90
2022/04/16 07:06:42;;;;;;;35.17;19.40;;;12.20;73.90;;;;;;4932058;29;20784;-89
2022/04/16 07:09:10;;;;;;;38.37;20.37;;;12.20;73.80;;;;;;4936072;29;20297;-91
2022/04/16 07:11:38;;;;;;;26.13;17.93;;;12.30;74.10;;;;;;4940179;29;20214;-94
2022/04/16 07:14:16;;;;;;;27.30;18.03;;;12.30;74.20;;;;;;4932400;29;20648;-89
2022/04/16 07:16:44;;;;;;;28.03;18.23;;;12.40;74.70;;;;;;4937976;29;20207;-94
2022/04/16 07:19:12;;;;;;;25.07;17.97;;;12.50;74.30;;;;;;4935324;29;20219;-94
2022/04/16 07:21:44;;;;;;;28.63;19.00;;;12.60;74.10;;;;;;4928295;29;20283;-93
2022/04/16 07:24:12;;;;;;;25.63;18.23;;;12.60;74.50;;;;;;4932081;29;20243;-91
2022/04/16 07:26:41;;;;;;;31.10;18.57;;;12.70;74.00;;;;;;4937599;29;20212;-95
2022/04/16 07:29:10;;;;;;;28.27;17.93;;;12.70;73.80;;;;;;4932554;29;20206;-93
2022/04/16 07:31:39;;;;;;;28.57;18.83;;;12.80;73.80;;;;;;4934314;29;20209;-93
2022/04/16 07:34:08;;;;;;;30.10;18.83;;;12.90;73.90;;;;;;4924021;29;20726;-96
2022/04/16 07:36:36;;;;;;;27.47;18.33;;;13.00;73.70;;;;;;4930130;29;20206;-94
2022/04/16 07:39:03;;;;;;;30.70;18.47;;;13.10;73.40;;;;;;4932942;29;20215;-93
2022/04/16 07:41:30;;;;;;;25.13;17.87;;;13.10;73.20;;;;;;4935472;29;20738;-92
2022/04/16 07:44:02;;;;;;;30.87;19.37;;;13.20;73.60;;;;;;4932142;29;20229;-94
2022/04/16 07:46:30;;;;;;;25.43;18.13;;;13.30;73.50;;;;;;4935571;29;20203;-94
2022/04/16 07:49:00;;;;;;;27.67;17.23;;;13.40;73.50;;;;;;4933216;29;20205;-94
2022/04/16 07:51:29;;;;;;;27.33;19.20;;;13.50;73.30;;;;;;4922203;29;20819;-93
2022/04/16 07:53:57;;;;;;;28.97;18.23;;;13.50;73.20;;;;;;4925380;29;20305;-91
2022/04/16 07:56:25;;;;;;;24.50;16.73;;;13.60;72.90;;;;;;4934067;29;20224;-92
2022/04/16 07:58:55;;;;;;;24.30;18.00;;;13.70;73.00;;;;;;4932122;29;20207;-93
2022/04/16 08:01:25;;;;;;;21.80;16.17;;;13.80;73.10;;;;;;4930831;29;20728;-92
2022/04/16 08:03:52;;;;;;;32.77;19.50;;;13.90;73.20;;;;;;4926594;29;20267;-92
2022/04/16 08:06:20;;;;;;;26.43;17.63;;;14.00;72.80;;;;;;4927309;29;20210;-92
2022/04/16 08:08:47;;;;;;;30.73;18.47;;;14.10;72.70;;;;;;4933017;29;20674;-91
2022/04/16 08:11:14;;;;;;;22.20;16.90;;;14.20;72.10;;;;;;4926971;29;20284;-95
2022/04/16 08:13:42;;;;;;;25.83;17.40;;;14.20;71.80;;;;;;4932358;29;20251;-92
2022/04/16 08:16:09;;;;;;;24.13;16.50;;;14.40;71.70;;;;;;4933788;29;20201;-95
2022/04/16 08:18:38;;;;;;;22.10;16.13;;;14.50;71.10;;;;;;4930655;29;20237;-92
2022/04/16 08:21:09;;;;;;;26.27;17.00;;;14.60;71.20;;;;;;4930808;29;20712;-93
2022/04/16 08:23:54;;;;;;;23.17;16.40;;;14.60;71.10;;;;;;4918183;29;20570;-90
2022/04/16 08:26:24;;;;;;;30.33;18.40;;;14.70;71.50;;;;;;4932893;29;20223;-95
2022/04/16 08:28:52;;;;;;;23.87;16.47;;;14.80;70.80;;;;;;4933980;29;20209;-94
2022/04/16 08:31:19;;;;;;;25.80;17.17;;;14.90;70.70;;;;;;4933428;29;20199;-93
2022/04/16 08:33:47;;;;;;;25.23;16.97;;;15.10;70.60;;;;;;4932896;29;20239;-92
2022/04/16 08:36:15;;;;;;;21.93;15.90;;;15.10;70.30;;;;;;4933393;29;20286;-91
2022/04/16 08:38:44;;;;;;;27.90;17.63;;;15.20;70.00;;;;;;4929526;29;20213;-91
2022/04/16 08:41:12;;;;;;;28.10;17.73;;;15.30;69.50;;;;;;4930245;29;20648;-91
2022/04/16 08:43:41;;;;;;;23.53;16.57;;;15.40;69.40;;;;;;4930757;29;20214;-92
2022/04/16 08:46:08;;;;;;;21.43;15.20;;;15.50;69.40;;;;;;4930871;29;20241;-91
2022/04/16 08:48:37;;;;;;;29.43;17.07;;;15.60;69.00;;;;;;4925734;29;20304;-92
2022/04/16 08:51:04;;;;;;;21.07;16.07;;;15.70;69.10;;;;;;4929829;29;20324;-93
2022/04/16 08:53:32;;;;;;;23.90;15.70;;;15.90;68.50;;;;;;4931138;29;20243;-91
2022/04/16 08:56:02;;;;;;;24.93;15.93;;;16.00;68.10;;;;;;4933198;29;20360;-91
2022/04/16 08:58:30;;;;;;;23.53;14.30;;;16.20;67.60;;;;;;4934518;29;20880;-91
2022/04/16 09:00:57;;;;;;;19.07;12.40;;;16.40;68.40;;;;;;4931826;29;20203;-91
2022/04/16 09:03:32;;;;;;;18.77;12.73;;;16.50;66.80;;;;;;4929471;29;20210;-91
2022/04/16 09:05:59;;;;;;;18.87;12.43;;;16.70;65.20;;;;;;4921009;29;20299;-92
2022/04/16 09:08:29;;;;;;;16.60;10.23;;;16.90;66.10;;;;;;4926645;29;20645;-92
2022/04/16 09:11:11;;;;;;;16.37;11.17;;;17.20;65.90;;;;;;4934942;29;20216;-91
2022/04/16 09:13:41;;;;;;;19.47;10.97;;;17.40;65.10;;;;;;4934290;29;20238;-92
2022/04/16 09:16:10;;;;;;;25.50;13.67;;;17.70;63.40;;;;;;4947412;29;20213;-92
2022/04/16 09:18:50;;;;;;;23.77;11.83;;;17.90;64.50;;;;;;4926402;29;20688;-92
2022/04/16 09:21:17;;;;;;;17.80;10.77;;;18.20;62.20;;;;;;4924414;29;20728;-93
2022/04/16 09:23:48;;;;;;;21.13;12.07;;;18.40;62.00;;;;;;4924308;29;20212;-93
2022/04/16 09:26:27;;;;;;;24.00;13.23;;;18.60;62.10;;;;;;4927706;29;20213;-94
2022/04/16 09:28:55;;;;;;;16.50;10.53;;;18.90;59.30;;;;;;4914629;29;20265;-94
2022/04/16 09:33:47;;;;;;;12.97;9.57;;;19.30;60.80;;;;;;4945409;23;20254;-94
2022/04/16 09:36:24;;;;;;;19.67;11.87;;;19.50;60.90;;;;;;4943830;29;20657;-93
2022/04/16 09:39:02;;;;;;;16.33;11.13;;;19.70;59.00;;;;;;4944092;29;20599;-92
2022/04/16 09:41:35;;;;;;;15.03;10.27;;;20.00;57.20;;;;;;4940762;29;20800;-95
2022/04/16 09:47:38;;;;;;;21.70;12.20;;;20.30;55.90;;;;;;4901093;29;20200;-94
2022/04/16 09:50:06;;;;;;;13.63;9.87;;;20.60;56.90;;;;;;4900856;29;20692;-94
2022/04/16 09:52:36;;;;;;;15.83;10.27;;;20.70;57.60;;;;;;4907382;29;20208;-96
2022/04/16 09:55:11;;;;;;;16.17;10.87;;;20.90;56.40;;;;;;4897288;29;20233;-95
2022/04/16 09:57:44;;;;;;;11.73;8.50;;;21.00;55.60;;;;;;4905434;29;20304;-94
2022/04/16 10:00:23;;;;;;;11.27;9.27;;;21.20;55.80;;;;;;4903688;29;20311;-93
2022/04/16 10:02:52;;;;;;;23.00;11.87;;;21.30;54.00;;;;;;4900297;29;20595;-89
2022/04/16 10:05:22;;;;;;;18.40;11.93;;;21.40;54.60;;;;;;4887773;29;20208;-92
2022/04/16 10:07:50;;;;;;;15.57;9.77;;;21.50;53.70;;;;;;4904373;29;20262;-92
2022/04/16 10:10:25;;;;;;;15.17;10.73;;;21.60;54.50;;;;;;4896291;29;20723;-90
2022/04/16 10:13:03;;;;;;;16.40;10.30;;;21.70;54.50;;;;;;4901346;29;20523;-93
2022/04/16 10:15:44;;;;;;;18.97;11.87;;;21.80;54.10;;;;;;4901220;29;20239;-93
2022/04/16 10:18:13;;;;;;;13.87;9.20;;;21.90;52.60;;;;;;4916481;29;20763;-93
2022/04/16 10:20:52;;;;;;;12.03;8.90;;;22.00;53.70;;;;;;4905209;29;20291;-93
2022/04/16 10:23:39;;;;;;;13.17;9.83;;;22.20;53.00;;;;;;4903198;29;20204;-93
2022/04/16 10:26:09;;;;;;;14.43;10.33;;;22.20;52.00;;;;;;4903406;29;20265;-93
2022/04/16 10:28:43;;;;;;;10.43;8.87;;;22.30;53.00;;;;;;4899850;29;20954;-95
2022/04/16 10:31:30;;;;;;;12.70;8.47;;;22.40;51.20;;;;;;4906709;29;20228;-94
2022/04/16 10:34:07;;;;;;;12.67;8.47;;;22.50;50.90;;;;;;4896804;29;20222;-92
2022/04/16 10:36:38;;;;;;;12.77;8.90;;;22.60;50.80;;;;;;4899515;29;20201;-93
2022/04/16 10:39:14;;;;;;;11.20;7.97;;;22.60;50.70;;;;;;4896126;29;20305;-90
2022/04/16 10:41:41;;;;;;;13.00;9.00;;;22.80;51.20;;;;;;4914083;29;20252;-92
2022/04/16 10:44:10;;;;;;;13.23;9.33;;;22.90;51.30;;;;;;4910511;29;20224;-93
2022/04/16 10:46:44;;;;;;;16.80;10.57;;;23.00;50.70;;;;;;4906664;29;20213;-93
2022/04/16 10:49:18;;;;;;;12.07;9.07;;;23.00;49.80;;;;;;4908860;29;20709;-93
2022/04/16 10:51:47;;;;;;;12.23;8.47;;;23.10;50.30;;;;;;4905235;29;20205;-94
2022/04/16 10:57:06;;;;;;;13.40;8.23;;;23.30;51.50;;;;;;4845955;29;20203;-94
2022/04/16 10:59:41;;;;;;;12.37;8.33;;;23.40;50.70;;;;;;4899153;29;20210;-93
2022/04/16 11:02:20;;;;;;;9.10;7.03;;;23.50;49.50;;;;;;4898894;29;20213;-92
2022/04/16 11:04:59;;;;;;;9.57;6.80;;;23.60;49.10;;;;;;4894665;29;20265;-93
2022/04/16 11:07:28;;;;;;;8.93;6.90;;;23.80;49.90;;;;;;4907065;29;20209;-93
2022/04/16 11:10:01;;;;;;;11.80;8.40;;;23.90;49.70;;;;;;4904894;29;20225;-93
2022/04/16 11:12:30;;;;;;;10.80;7.13;;;24.00;47.80;;;;;;4901358;29;20204;-93
2022/04/16 11:15:00;;;;;;;10.70;7.77;;;24.10;49.20;;;;;;4909487;29;20757;-93
2022/04/16 11:17:28;;;;;;;12.07;8.03;;;24.20;48.40;;;;;;4909691;29;20367;-94
2022/04/16 11:20:00;;;;;;;13.10;8.40;;;24.30;48.00;;;;;;4901868;29;20305;-92
2022/04/16 11:22:27;;;;;;;12.23;8.07;;;24.40;47.80;;;;;;4901762;29;20205;-92
2022/04/16 11:24:55;;;;;;;10.07;7.50;;;24.50;47.40;;;;;;4907324;29;20689;-93
2022/04/16 11:35:57;;;;;;;10.27;7.27;;;24.70;46.90;;;;;;4905007;29;20349;-93
2022/04/16 11:38:29;;;;;;;8.17;6.70;;;24.80;46.00;;;;;;4905782;29;20212;-95
2022/04/16 11:40:59;;;;;;;13.87;8.20;;;24.90;45.60;;;;;;4897885;29;20209;-94
2022/04/16 11:43:29;;;;;;;8.87;6.83;;;25.00;46.90;;;;;;4905772;29;20255;-92
2022/04/16 11:45:58;;;;;;;12.57;7.57;;;25.00;45.60;;;;;;4901104;29;20566;-92
2022/04/16 11:48:25;;;;;;;9.73;6.40;;;25.10;44.60;;;;;;4897181;29;20725;-95
2022/04/16 11:50:53;;;;;;;11.93;7.93;;;25.10;45.00;;;;;;4897637;29;20214;-91
2022/04/16 11:53:23;;;;;;;9.70;6.33;;;25.20;44.70;;;;;;4901066;29;20629;-93
2022/04/16 11:55:53;;;;;;;13.77;7.47;;;25.20;44.50;;;;;;4905005;29;20220;-92
2022/04/16 11:58:30;;;;;;;10.40;7.57;;;25.20;44.90;;;;;;4898191;29;20220;-93
2022/04/16 12:01:00;;;;;;;9.07;7.47;;;25.30;44.20;;;;;;4894447;29;20209;-94
2022/04/16 12:03:39;;;;;;;9.60;7.23;;;25.30;44.60;;;;;;4909628;29;20216;-92
2022/04/16 12:06:10;;;;;;;12.93;8.30;;;25.40;44.40;;;;;;4903638;29;20205;-91
2022/04/16 12:08:37;;;;;;;16.43;9.00;;;25.40;43.60;;;;;;4897803;29;20218;-93
2022/04/16 12:11:08;;;;;;;11.27;7.63;;;25.40;44.70;;;;;;4895627;29;20320;-91
2022/04/16 12:13:36;;;;;;;9.17;6.57;;;25.50;45.20;;;;;;4895780;29;20237;-92
2022/04/16 12:16:09;;;;;;;10.27;7.53;;;25.60;43.40;;;;;;4900423;29;20205;-95
2022/04/16 12:18:58;;;;;;;9.20;6.40;;;25.60;42.20;;;;;;4895894;29;20304;-95
2022/04/16 12:21:26;;;;;;;9.50;6.63;;;25.70;41.20;;;;;;4900824;29;20213;-95
2022/04/16 12:23:53;;;;;;;10.33;6.27;;;25.80;42.30;;;;;;4903306;29;20299;-95
2022/04/16 12:26:26;;;;;;;9.33;7.27;;;25.80;43.50;;;;;;4900829;29;20213;-96
2022/04/16 12:29:12;;;;;;;27.53;14.00;;;25.80;41.50;;;;;;4908594;23;20293;-96
2022/04/16 12:31:40;;;;;;;7.37;6.13;;;25.90;41.30;;;;;;4944639;28;20259;-94
2022/04/16 12:34:07;;;;;;;9.07;6.70;;;25.90;42.00;;;;;;4944846;29;20767;-95
2022/04/16 12:36:38;;;;;;;11.43;7.50;;;25.90;42.00;;;;;;4943951;29;20248;-94
2022/04/16 12:39:05;;;;;;;8.07;6.30;;;26.00;41.90;;;;;;4940279;29;20210;-96
2022/04/16 12:41:42;;;;;;;7.47;6.17;;;26.10;41.30;;;;;;4940629;29;20200;-95
2022/04/16 12:44:15;;;;;;;12.13;7.57;;;26.10;40.60;;;;;;4939776;29;20199;-94
2022/04/16 12:46:45;;;;;;;11.73;6.93;;;26.20;40.70;;;;;;4941332;29;20298;-96
2022/04/16 12:49:17;;;;;;;8.20;6.40;;;26.20;41.60;;;;;;4928727;29;20642;-96
2022/04/16 12:51:48;;;;;;;13.77;7.93;;;26.30;41.20;;;;;;4935224;29;20204;-95
2022/04/16 12:54:15;;;;;;;9.77;6.73;;;26.40;41.20;;;;;;4929103;29;20242;-92
2022/04/16 12:56:48;;;;;;;11.33;7.23;;;26.40;40.70;;;;;;4924410;29;20295;-95
2022/04/16 12:59:15;;;;;;;7.53;6.10;;;26.50;40.40;;;;;;4928805;29;20295;-92
2022/04/16 13:01:44;;;;;;;10.07;6.23;;;26.60;40.60;;;;;;4932167;29;20307;-94
2022/04/16 13:04:12;;;;;;;9.20;6.53;;;26.60;40.30;;;;;;4936780;29;20283;-95
2022/04/16 13:06:39;;;;;;;12.10;6.97;;;26.70;40.00;;;;;;4937345;29;20291;-96
2022/04/16 13:09:06;;;;;;;10.37;6.43;;;26.70;39.60;;;;;;4934865;29;20212;-93
2022/04/16 13:11:50;;;;;;;7.23;6.07;;;26.80;40.10;;;;;;4934679;29;20239;-94